Time;durP1;ratioP1;P1;durP2;ratioP2;P2;SDS_P1;SDS_P2;PMS_P1;PMS_P2;Temp;Humidity;BMP_temperature;BMP_pressure;BME280_temperature;BME280_humidity;BME280_pressure;Samples;Min_cycle;Max_cycle;Signal;HPM_P1;HPM_P2
2023/06/09 00:02:23;;;;;;;1.90;0.80;;;;;;;20.82;55.60;100997.91;5021325;28;20025;-63
2023/06/09 00:04:49;;;;;;;1.27;0.90;;;;;;;20.72;55.82;100996.13;5025884;28;20112;-64
2023/06/09 00:07:18;;;;;;;0.95;0.63;;;;;;;20.74;56.00;101000.00;5025646;28;20488;-63
2023/06/09 00:09:44;;;;;;;4.93;1.10;;;;;;;20.64;56.23;101009.13;5023282;28;20427;-64
2023/06/09 00:12:10;;;;;;;1.38;0.80;;;;;;;20.59;56.37;101009.63;5027388;28;20079;-64
2023/06/09 00:14:36;;;;;;;1.13;0.70;;;;;;;20.44;56.84;101003.56;5022727;28;20437;-64
2023/06/09 00:17:02;;;;;;;1.17;0.80;;;;;;;20.27;57.43;101010.06;5014848;28;20060;-66
2023/06/09 00:19:29;;;;;;;1.60;0.75;;;;;;;20.02;58.46;100997.88;5021453;28;20116;-65
2023/06/09 00:21:54;;;;;;;1.70;0.82;;;;;;;20.03;58.81;100996.69;5028848;28;20033;-63
2023/06/09 00:24:21;;;;;;;1.65;0.70;;;;;;;20.11;59.08;100995.41;5024892;28;20103;-63
2023/06/09 00:26:51;;;;;;;1.05;0.60;;;;;;;20.24;58.60;100982.75;5016563;28;20021;-63
2023/06/09 00:29:21;;;;;;;1.75;0.65;;;;;;;20.15;59.18;100985.22;5024405;28;20610;-63
2023/06/09 00:31:47;;;;;;;2.22;1.20;;;;;;;20.23;59.04;100992.13;5018914;28;20038;-64
2023/06/09 00:34:13;;;;;;;2.97;0.95;;;;;;;20.14;59.82;100989.13;5026346;28;20496;-63
2023/06/09 00:36:39;;;;;;;1.85;1.10;;;;;;;19.92;60.15;100988.63;5025331;28;20079;-63
2023/06/09 00:39:05;;;;;;;2.08;1.00;;;;;;;19.86;60.60;101000.44;5029024;28;20041;-65
2023/06/09 00:41:38;;;;;;;1.25;0.63;;;;;;;19.85;60.78;101004.34;5031976;28;20399;-63
2023/06/09 00:44:04;;;;;;;0.80;0.65;;;;;;;19.68;61.43;101006.09;5028866;28;20094;-66
2023/06/09 00:46:30;;;;;;;1.58;0.80;;;;;;;19.77;61.20;100993.50;5028323;28;20511;-64
2023/06/09 00:48:56;;;;;;;1.85;0.93;;;;;;;19.83;61.09;100993.03;5029434;28;20030;-64
2023/06/09 00:51:22;;;;;;;3.25;1.02;;;;;;;19.72;61.30;100996.66;5031347;28;20670;-64
2023/06/09 00:53:47;;;;;;;2.50;0.85;;;;;;;19.78;61.18;100997.75;5019734;28;20030;-64
2023/06/09 00:56:13;;;;;;;4.00;0.90;;;;;;;19.67;61.98;100991.66;5024921;28;20035;-65
2023/06/09 00:58:38;;;;;;;2.55;0.88;;;;;;;19.76;61.77;100988.44;5030921;28;20155;-65
2023/06/09 01:01:04;;;;;;;2.92;0.77;;;;;;;19.51;62.11;100985.22;5042915;22;20253;-58
2023/06/09 01:03:32;;;;;;;3.38;0.98;;;;;;;19.54;62.55;100979.69;5041058;28;20040;-53
2023/06/09 01:06:09;;;;;;;2.03;1.13;;;;;;;19.34;62.92;100986.94;5047836;28;20131;-55
2023/06/09 01:08:47;;;;;;;1.33;0.95;;;;;;;19.45;63.29;100987.59;5035913;28;20052;-54
2023/06/09 01:11:20;;;;;;;1.30;0.65;;;;;;;19.41;63.10;100986.88;5042196;28;20052;-57
2023/06/09 01:14:01;;;;;;;1.00;0.80;;;;;;;19.37;63.48;100982.63;5029742;28;20071;-59
2023/06/09 01:16:44;;;;;;;1.53;0.80;;;;;;;19.26;62.93;100990.88;5040733;28;20040;-58
2023/06/09 01:19:25;;;;;;;1.63;1.00;;;;;;;19.30;63.47;100988.88;5037458;28;20036;-58
2023/06/09 01:21:54;;;;;;;1.40;0.77;;;;;;;19.23;64.32;100990.91;5037835;28;20483;-61
2023/06/09 01:24:37;;;;;;;0.52;0.47;;;;;;;19.34;63.71;100988.88;5048525;28;20056;-59
2023/06/09 01:27:05;;;;;;;1.20;0.32;;;;;;;19.41;63.05;100981.41;5042722;28;20033;-52
2023/06/09 01:29:32;;;;;;;2.00;0.73;;;;;;;19.43;63.05;100975.53;5039615;28;20124;-58
2023/06/09 01:32:00;;;;;;;1.80;1.02;;;;;;;19.37;62.71;100982.63;5039766;28;20021;-57
2023/06/09 01:34:26;;;;;;;2.72;1.13;;;;;;;19.30;63.24;100988.13;5044237;28;20440;-58
2023/06/09 01:36:54;;;;;;;1.50;0.98;;;;;;;19.29;63.24;100984.63;5044276;28;20095;-58
2023/06/09 01:39:19;;;;;;;4.30;0.82;;;;;;;19.09;63.99;100991.81;5044613;28;20071;-54
2023/06/09 01:41:45;;;;;;;1.83;0.98;;;;;;;19.05;64.15;100990.31;5047958;28;20056;-60
2023/06/09 01:44:10;;;;;;;0.98;0.65;;;;;;;19.11;64.03;100988.69;5046675;28;20028;-56
2023/06/09 01:46:37;;;;;;;1.00;0.60;;;;;;;19.08;64.06;100993.03;5040086;28;20407;-61
2023/06/09 01:49:22;;;;;;;1.63;0.90;;;;;;;19.12;63.97;100991.03;5040652;28;20377;-59
2023/06/09 01:51:52;;;;;;;4.45;0.98;;;;;;;19.17;63.96;100987.06;5047224;28;20237;-61
2023/06/09 01:54:41;;;;;;;0.90;0.80;;;;;;;19.11;63.73;100980.50;5044658;28;20116;-59
2023/06/09 01:57:19;;;;;;;1.08;0.52;;;;;;;19.09;63.75;100977.38;5046645;28;20391;-61
2023/06/09 01:59:55;;;;;;;0.82;0.60;;;;;;;18.96;64.40;100982.59;5033008;28;20557;-60
2023/06/09 02:02:26;;;;;;;2.47;0.88;;;;;;;18.94;64.83;100984.94;5048725;28;20033;-60
2023/06/09 02:04:53;;;;;;;1.43;0.97;;;;;;;18.89;64.79;100988.88;5036097;28;20072;-55
2023/06/09 02:07:21;;;;;;;1.65;0.95;;;;;;;18.85;64.88;100973.72;5044454;28;20128;-57
2023/06/09 02:09:47;;;;;;;3.63;0.90;;;;;;;18.86;64.95;100983.44;5050741;28;20059;-55
2023/06/09 02:12:13;;;;;;;2.78;0.80;;;;;;;18.84;65.10;100980.34;5047187;28;20483;-59
2023/06/09 02:14:41;;;;;;;2.85;1.13;;;;;;;18.84;64.84;100975.66;5050487;28;20075;-56
2023/06/09 02:17:08;;;;;;;1.70;1.02;;;;;;;18.92;64.92;100974.44;5049329;28;20383;-56
2023/06/09 02:19:38;;;;;;;2.80;1.20;;;;;;;18.92;65.25;100970.91;5042018;28;20032;-54
2023/06/09 02:22:06;;;;;;;1.85;1.10;;;;;;;18.78;64.43;100974.53;5034251;28;20140;-54
2023/06/09 02:24:33;;;;;;;1.35;0.95;;;;;;;18.66;65.41;100963.34;5044498;28;20112;-54
2023/06/09 02:26:59;;;;;;;1.60;1.05;;;;;;;18.44;66.07;100970.91;5040513;28;20033;-58
2023/06/09 02:29:26;;;;;;;1.38;1.02;;;;;;;18.52;65.99;100972.41;5048160;28;20119;-57
2023/06/09 02:31:53;;;;;;;0.82;0.70;;;;;;;18.38;66.20;100975.19;5045594;28;20044;-59
2023/06/09 02:34:22;;;;;;;1.50;0.93;;;;;;;18.42;66.24;100972.44;5039283;28;20040;-56
2023/06/09 02:36:52;;;;;;;1.05;0.68;;;;;;;18.42;66.63;100973.25;5030158;28;20025;-58
2023/06/09 02:39:19;;;;;;;3.33;0.90;;;;;;;18.27;66.71;100969.03;5028039;28;20719;-58
2023/06/09 02:41:45;;;;;;;1.30;0.90;;;;;;;18.30;66.66;100970.97;5043255;28;20033;-55
2023/06/09 02:44:11;;;;;;;2.00;0.75;;;;;;;18.34;66.87;100976.38;5050971;28;20483;-57
2023/06/09 02:46:36;;;;;;;1.73;0.90;;;;;;;18.25;66.33;100968.66;5042992;28;20116;-55
2023/06/09 02:49:02;;;;;;;2.83;1.10;;;;;;;18.25;67.06;100962.44;5045753;28;20144;-55
2023/06/09 02:51:28;;;;;;;1.00;0.57;;;;;;;18.30;67.24;100972.91;5042948;28;20527;-59
2023/06/09 02:53:54;;;;;;;1.73;0.88;;;;;;;18.31;67.12;100974.47;5046775;28;20040;-57
2023/06/09 02:56:20;;;;;;;1.70;0.90;;;;;;;18.19;67.30;100972.97;5037465;28;20517;-57
2023/06/09 02:58:51;;;;;;;2.78;1.40;;;;;;;17.96;68.55;100975.44;5045441;28;20036;-57
2023/06/09 03:01:17;;;;;;;1.90;1.00;;;;;;;18.08;68.49;100985.13;5032450;28;20033;-56
2023/06/09 03:03:46;;;;;;;5.00;1.58;;;;;;;18.12;68.35;100983.91;5033301;28;20026;-59
2023/06/09 03:06:13;;;;;;;2.22;1.13;;;;;;;18.12;68.77;100974.97;5035366;28;20025;-54
2023/06/09 03:08:43;;;;;;;2.13;1.40;;;;;;;18.09;68.40;100978.47;5039608;28;20036;-53
2023/06/09 03:11:09;;;;;;;2.60;0.70;;;;;;;17.94;69.49;100978.53;5055610;28;20049;-53
2023/06/09 03:13:35;;;;;;;1.90;1.00;;;;;;;18.04;68.81;100988.63;5046535;28;20294;-56
2023/06/09 03:16:02;;;;;;;2.40;1.00;;;;;;;17.86;69.19;100987.16;5045023;28;20024;-57
2023/06/09 03:18:29;;;;;;;2.38;1.10;;;;;;;17.96;70.03;100986.34;5041414;28;20029;-54
2023/06/09 03:20:55;;;;;;;2.75;0.88;;;;;;;18.01;69.42;100997.59;5042800;28;20036;-58
2023/06/09 03:23:21;;;;;;;2.58;1.10;;;;;;;18.03;69.29;100989.03;5042138;28;20036;-55
2023/06/09 03:25:52;;;;;;;1.90;0.82;;;;;;;18.05;69.09;100994.84;5045208;28;20035;-58
2023/06/09 03:28:18;;;;;;;3.13;0.95;;;;;;;18.01;69.75;100983.19;5047008;28;20261;-53
2023/06/09 03:30:44;;;;;;;1.48;0.90;;;;;;;17.98;69.86;100986.72;5045694;28;20042;-58
2023/06/09 03:33:14;;;;;;;4.00;1.02;;;;;;;17.98;69.64;100984.00;5025699;28;20029;-57
2023/06/09 03:35:41;;;;;;;1.70;0.93;;;;;;;17.79;70.50;100985.22;5046290;28;20434;-55
2023/06/09 03:38:07;;;;;;;4.57;1.85;;;;;;;17.71;70.78;100989.13;5044998;28;20267;-56
2023/06/09 03:40:34;;;;;;;2.60;0.98;;;;;;;17.73;70.98;100992.25;5039961;28;20037;-54
2023/06/09 03:43:00;;;;;;;2.38;1.05;;;;;;;17.57;71.56;100993.88;5048080;28;20041;-57
2023/06/09 03:45:26;;;;;;;3.95;1.30;;;;;;;17.63;71.35;100990.34;5045968;28;20373;-60
2023/06/09 03:47:51;;;;;;;1.80;0.82;;;;;;;17.76;71.06;100994.19;5044394;28;20025;-54
2023/06/09 03:50:17;;;;;;;3.75;1.23;;;;;;;17.82;71.01;100987.19;5045382;28;20037;-56
2023/06/09 03:52:43;;;;;;;1.92;0.80;;;;;;;17.86;71.26;100989.88;5041846;28;20033;-56
2023/06/09 03:55:09;;;;;;;1.67;0.98;;;;;;;17.90;71.13;100990.66;5034123;28;20029;-55
2023/06/09 03:57:36;;;;;;;1.50;1.00;;;;;;;17.99;71.48;100999.16;5044600;28;20311;-53
2023/06/09 04:00:03;;;;;;;3.10;1.27;;;;;;;17.97;70.79;100996.06;5035707;28;20111;-59
2023/06/09 04:02:30;;;;;;;1.35;0.90;;;;;;;18.02;70.91;100996.41;5036278;28;20041;-59
2023/06/09 04:04:57;;;;;;;4.47;1.38;;;;;;;18.10;71.23;100988.97;5041867;28;20033;-54
2023/06/09 04:07:22;;;;;;;1.70;1.02;;;;;;;18.12;71.51;100986.63;5040027;28;20025;-54
2023/06/09 04:09:47;;;;;;;3.55;1.90;;;;;;;18.24;71.12;100993.56;5048120;28;20037;-51
2023/06/09 04:12:13;;;;;;;1.15;1.00;;;;;;;18.24;70.77;100990.84;5042488;28;20120;-58
2023/06/09 04:14:39;;;;;;;1.67;1.20;;;;;;;18.29;70.44;100985.75;5053105;28;20021;-59
2023/06/09 04:17:05;;;;;;;1.92;1.10;;;;;;;18.36;70.32;100991.19;5052103;28;20476;-56
2023/06/09 04:19:31;;;;;;;2.05;1.25;;;;;;;18.44;69.92;100987.28;5053826;28;20060;-59
2023/06/09 04:22:04;;;;;;;1.90;1.27;;;;;;;18.54;69.96;100993.84;5047508;28;20052;-51
2023/06/09 04:24:30;;;;;;;2.35;1.42;;;;;;;18.59;70.00;100991.44;5046294;28;20080;-53
2023/06/09 04:26:55;;;;;;;1.92;0.90;;;;;;;18.63;69.66;100996.88;5040030;28;20051;-59
2023/06/09 04:29:22;;;;;;;5.95;1.17;;;;;;;18.75;69.03;100993.69;5055162;28;20068;-54
2023/06/09 04:31:48;;;;;;;2.05;0.98;;;;;;;18.79;69.01;100994.44;5047410;28;20032;-59
2023/06/09 04:34:15;;;;;;;1.15;0.70;;;;;;;18.75;68.97;100993.69;5052064;28;20392;-57
2023/06/09 04:36:47;;;;;;;6.72;2.03;;;;;;;18.84;68.78;100994.78;5052185;28;20032;-54
2023/06/09 04:39:16;;;;;;;2.58;1.20;;;;;;;18.79;68.98;100997.16;5054049;28;20032;-56
2023/06/09 04:41:44;;;;;;;2.30;1.15;;;;;;;18.79;68.99;100997.91;5053822;28;20020;-59
2023/06/09 04:44:10;;;;;;;1.20;0.70;;;;;;;18.91;68.07;101004.88;5043193;28;20396;-58
2023/06/09 04:46:39;;;;;;;2.63;1.02;;;;;;;18.92;68.30;101009.13;5057336;28;20044;-54
2023/06/09 04:49:09;;;;;;;2.00;1.00;;;;;;;18.99;67.84;101013.78;5051324;28;20573;-55
2023/06/09 04:51:49;;;;;;;3.58;1.40;;;;;;;18.98;68.29;101009.47;5049614;28;20021;-55
2023/06/09 04:54:22;;;;;;;1.00;0.70;;;;;;;19.01;68.97;101017.63;5054840;28;20116;-60
2023/06/09 04:56:52;;;;;;;1.95;1.17;;;;;;;19.11;68.76;101022.22;5030446;28;20368;-52
2023/06/09 04:59:19;;;;;;;2.80;1.00;;;;;;;19.19;68.82;101018.28;5050153;28;20079;-55
2023/06/09 05:01:46;;;;;;;2.38;0.98;;;;;;;19.24;68.16;101011.59;5050606;28;20024;-60
2023/06/09 05:04:13;;;;;;;2.35;1.08;;;;;;;19.24;68.65;101020.56;5049615;28;20346;-51
2023/06/09 05:06:38;;;;;;;1.20;0.80;;;;;;;19.25;68.28;101016.66;5051561;28;20051;-60
2023/06/09 05:09:07;;;;;;;1.52;1.25;;;;;;;19.30;67.73;101018.19;5047976;28;20617;-59
2023/06/09 05:11:34;;;;;;;2.28;0.85;;;;;;;19.52;67.19;101014.84;5038255;28;20510;-56
2023/06/09 05:14:00;;;;;;;3.08;1.35;;;;;;;20.09;65.88;101022.41;5046652;28;20040;-56
2023/06/09 05:16:27;;;;;;;2.10;1.45;;;;;;;20.76;62.90;101027.75;5030420;28;20033;-56
2023/06/09 05:18:53;;;;;;;2.72;1.08;;;;;;;21.36;60.06;101030.28;5052259;28;20060;-51
2023/06/09 05:21:21;;;;;;;1.90;0.95;;;;;;;21.93;58.45;101035.47;5046623;28;20122;-55
2023/06/09 05:23:47;;;;;;;2.22;1.17;;;;;;;22.40;55.25;101027.84;5049064;28;20641;-52
2023/06/09 05:26:13;;;;;;;1.60;0.98;;;;;;;22.67;54.00;101031.16;5040431;28;20039;-58
2023/06/09 05:28:38;;;;;;;2.22;1.10;;;;;;;22.97;52.64;101036.34;5038097;28;20025;-58
2023/06/09 05:31:04;;;;;;;2.75;0.90;;;;;;;23.13;51.99;101043.81;5039358;28;20037;-54
2023/06/09 05:33:30;;;;;;;2.00;0.73;;;;;;;23.20;52.19;101041.66;5045029;28;20025;-57
2023/06/09 05:35:56;;;;;;;4.90;1.35;;;;;;;23.43;52.22;101042.66;5031149;28;20040;-55
2023/06/09 05:38:25;;;;;;;0.88;0.60;;;;;;;23.53;51.24;101041.63;5023364;28;20502;-53
2023/06/09 05:40:54;;;;;;;4.90;0.82;;;;;;;23.71;51.10;101041.91;5047981;28;20198;-54
2023/06/09 05:43:19;;;;;;;2.35;0.70;;;;;;;23.91;50.42;101035.03;5049909;28;20037;-55
2023/06/09 05:45:45;;;;;;;1.42;0.50;;;;;;;24.04;50.62;101041.38;5047107;28;20035;-56
2023/06/09 05:48:10;;;;;;;2.13;0.80;;;;;;;24.27;49.91;101045.84;5044892;28;20033;-54
2023/06/09 05:50:37;;;;;;;1.30;0.55;;;;;;;24.42;49.53;101043.41;5048766;28;20403;-55
2023/06/09 05:53:03;;;;;;;2.13;1.10;;;;;;;24.66;50.08;101042.66;5037516;28;20103;-55
2023/06/09 05:55:29;;;;;;;1.13;0.63;;;;;;;24.72;50.03;101043.66;5042712;28;20483;-54
2023/06/09 05:57:54;;;;;;;3.55;1.40;;;;;;;24.87;48.81;101047.50;5045349;28;20043;-57
2023/06/09 06:00:20;;;;;;;2.30;1.00;;;;;;;24.84;48.82;101051.16;5044260;28;20044;-56
2023/06/09 06:02:46;;;;;;;1.08;0.55;;;;;;;24.84;47.99;101047.63;5049934;28;20036;-55
2023/06/09 06:05:14;;;;;;;0.85;0.75;;;;;;;24.90;48.23;101051.38;5048326;28;20487;-58
2023/06/09 06:07:40;;;;;;;2.67;0.80;;;;;;;24.95;48.57;101043.31;5045984;28;20020;-52
2023/06/09 06:10:06;;;;;;;0.85;0.68;;;;;;;24.98;49.07;101053.47;5047247;28;20400;-55
2023/06/09 06:12:53;;;;;;;2.00;0.82;;;;;;;25.16;49.42;101036.34;5039234;28;20471;-58
2023/06/09 06:15:18;;;;;;;2.15;0.75;;;;;;;25.19;48.21;101051.22;4957550;28;20644;-54
2023/06/09 06:18:04;;;;;;;1.60;0.70;;;;;;;25.26;48.30;101053.75;4952845;28;20086;-55
2023/06/09 06:20:30;;;;;;;1.50;0.90;;;;;;;25.39;47.86;101060.81;4892795;29;20104;-58
2023/06/09 06:22:55;;;;;;;3.58;0.57;;;;;;;25.54;47.54;101061.06;4891755;29;20048;-57
2023/06/09 06:25:21;;;;;;;1.52;0.90;;;;;;;25.51;47.36;101062.72;4874610;29;20078;-56
2023/06/09 06:27:46;;;;;;;2.85;0.85;;;;;;;25.52;46.88;101063.50;4879264;29;20163;-55
2023/06/09 06:30:13;;;;;;;1.83;0.60;;;;;;;25.59;47.32;101063.28;4886396;29;20060;-58
2023/06/09 06:32:48;;;;;;;2.40;0.82;;;;;;;25.56;47.08;101058.63;4887997;29;20120;-56
2023/06/09 06:35:25;;;;;;;1.23;0.73;;;;;;;25.69;47.86;101068.41;4882997;29;20499;-51
2023/06/09 06:37:50;;;;;;;1.40;0.82;;;;;;;25.80;47.64;101071.56;4890097;29;20048;-54
2023/06/09 06:40:16;;;;;;;0.70;0.60;;;;;;;25.89;48.26;101070.84;4884608;29;20048;-56
2023/06/09 06:42:42;;;;;;;1.35;0.82;;;;;;;26.04;46.71;101076.63;4877750;29;20525;-57
2023/06/09 06:45:14;;;;;;;4.90;0.77;;;;;;;26.03;45.95;101075.09;4859837;29;20048;-60
2023/06/09 06:47:41;;;;;;;1.35;0.98;;;;;;;26.02;46.50;101081.81;4876790;29;20032;-58
2023/06/09 06:50:08;;;;;;;1.30;0.75;;;;;;;26.07;46.42;101079.31;4883462;29;20411;-59
2023/06/09 06:52:35;;;;;;;2.60;1.23;;;;;;;26.10;46.62;101085.91;4932216;28;20462;-56
2023/06/09 06:55:01;;;;;;;2.28;0.85;;;;;;;26.09;47.45;101090.69;4963771;28;20386;-55
2023/06/09 06:57:27;;;;;;;1.83;0.90;;;;;;;25.87;46.69;101087.09;5000487;28;20037;-59
2023/06/09 06:59:52;;;;;;;2.22;0.90;;;;;;;25.89;47.17;101088.22;5040956;28;20452;-54
2023/06/09 07:02:18;;;;;;;1.23;1.00;;;;;;;26.11;47.54;101087.47;5040060;28;20239;-57
2023/06/09 07:04:43;;;;;;;1.20;0.77;;;;;;;26.33;46.61;101091.72;5038914;28;20064;-56
2023/06/09 07:07:09;;;;;;;1.40;0.82;;;;;;;26.23;45.99;101094.91;5045764;28;20391;-59
2023/06/09 07:09:35;;;;;;;1.73;0.88;;;;;;;26.44;46.39;101094.09;5045052;28;20530;-55
2023/06/09 07:12:01;;;;;;;1.65;0.82;;;;;;;26.58;46.12;101097.09;5042551;28;20043;-59
2023/06/09 07:14:28;;;;;;;1.52;0.77;;;;;;;26.78;47.18;101105.81;5044106;28;20037;-54
2023/06/09 07:16:53;;;;;;;2.42;0.98;;;;;;;26.68;46.63;101103.44;5045197;22;20042;-63
2023/06/09 07:19:19;;;;;;;3.38;0.90;;;;;;;26.84;46.11;101106.00;5016696;28;20038;-60
2023/06/09 07:21:45;;;;;;;1.63;1.27;;;;;;;27.01;46.08;101101.75;4985558;28;20033;-61
2023/06/09 07:24:10;;;;;;;1.67;1.08;;;;;;;27.11;45.98;101110.84;5002758;28;20030;-61
2023/06/09 07:26:36;;;;;;;1.13;0.90;;;;;;;27.21;45.74;101107.66;5019878;28;20025;-60
2023/06/09 07:29:01;;;;;;;2.15;0.85;;;;;;;27.32;45.82;101102.47;5020811;28;20029;-61
2023/06/09 07:31:27;;;;;;;1.52;0.90;;;;;;;27.36;46.80;101091.25;5019363;28;20107;-61
2023/06/09 07:33:53;;;;;;;1.25;0.65;;;;;;;27.34;46.20;101099.22;5002996;28;20099;-60
2023/06/09 07:36:19;;;;;;;0.77;0.68;;;;;;;27.47;46.65;101097.88;5020219;28;20021;-60
2023/06/09 07:38:46;;;;;;;1.40;1.00;;;;;;;27.66;46.63;101095.91;5013406;28;20368;-61
2023/06/09 07:41:12;;;;;;;2.63;1.02;;;;;;;27.97;45.11;101099.28;5016162;28;20029;-61
2023/06/09 07:43:38;;;;;;;2.10;1.45;;;;;;;27.94;45.89;101102.97;5025991;28;20209;-60
2023/06/09 07:46:03;;;;;;;1.15;0.90;;;;;;;28.14;45.94;101096.97;5022277;28;20034;-61
2023/06/09 07:48:29;;;;;;;1.70;0.95;;;;;;;28.28;44.17;101101.88;5024121;28;20113;-61
2023/06/09 07:50:56;;;;;;;2.90;1.40;;;;;;;28.31;43.87;101104.47;5027466;28;20171;-62
2023/06/09 07:53:22;;;;;;;1.50;0.93;;;;;;;28.42;43.30;101095.66;5024968;28;20053;-61
2023/06/09 07:55:47;;;;;;;1.83;1.05;;;;;;;28.59;43.32;101102.38;5005938;28;20030;-61
2023/06/09 07:58:13;;;;;;;8.25;0.93;;;;;;;28.62;43.04;101100.69;5015237;28;20391;-64
2023/06/09 08:00:38;;;;;;;0.90;0.70;;;;;;;28.71;42.35;101117.28;5002522;28;20196;-62
2023/06/09 08:03:04;;;;;;;0.70;0.68;;;;;;;28.40;42.99;101106.44;5026859;28;20041;-61
2023/06/09 08:05:30;;;;;;;1.52;0.80;;;;;;;28.53;43.41;101107.78;5026821;28;20025;-62
2023/06/09 08:08:02;;;;;;;1.77;0.85;;;;;;;28.63;42.37;101107.78;5027819;28;20036;-61
2023/06/09 08:10:28;;;;;;;2.65;1.40;;;;;;;28.74;42.77;101103.28;5026833;28;20040;-61
2023/06/09 08:12:53;;;;;;;1.40;1.05;;;;;;;28.86;42.68;101105.06;5024576;28;20037;-60
2023/06/09 08:15:20;;;;;;;1.52;0.88;;;;;;;29.13;42.20;101106.97;5023219;28;20025;-61
2023/06/09 08:17:45;;;;;;;1.42;1.00;;;;;;;29.16;42.03;101097.69;5026267;28;20017;-61
2023/06/09 08:20:11;;;;;;;2.47;1.02;;;;;;;29.26;41.81;101101.94;5027679;28;20048;-61
2023/06/09 08:22:37;;;;;;;2.60;1.13;;;;;;;29.22;40.72;101104.91;5026486;28;20032;-61
2023/06/09 08:25:03;;;;;;;1.67;0.65;;;;;;;29.16;41.23;101097.69;5023122;28;21548;-61
2023/06/09 08:27:28;;;;;;;1.85;1.10;;;;;;;29.38;41.21;101095.41;5006685;28;20072;-61
2023/06/09 08:29:54;;;;;;;1.27;0.80;;;;;;;29.52;40.93;101094.66;5027616;28;20037;-61
2023/06/09 08:32:19;;;;;;;1.23;0.90;;;;;;;29.57;41.39;101096.78;5028361;28;20052;-62
2023/06/09 08:34:45;;;;;;;1.08;0.75;;;;;;;29.76;40.42;101098.22;5028318;28;20116;-61
2023/06/09 08:37:11;;;;;;;2.97;1.10;;;;;;;29.90;39.91;101097.47;5022827;28;22049;-62
2023/06/09 08:39:36;;;;;;;0.95;0.77;;;;;;;29.95;39.87;101096.78;5028281;28;20026;-62
2023/06/09 08:42:09;;;;;;;2.45;1.00;;;;;;;30.08;40.51;101102.09;5022606;28;20037;-61
2023/06/09 08:44:39;;;;;;;1.45;0.80;;;;;;;30.19;41.09;101103.06;5027336;28;20045;-61
2023/06/09 08:47:26;;;;;;;1.67;0.93;;;;;;;30.36;39.51;101105.38;5025206;28;20084;-62
2023/06/09 08:49:57;;;;;;;0.95;0.70;;;;;;;30.47;39.42;101100.00;4975244;28;20657;-61
2023/06/09 08:52:27;;;;;;;3.95;1.00;;;;;;;30.45;39.45;101108.06;4980918;28;20054;-61
2023/06/09 08:54:58;;;;;;;1.30;0.70;;;;;;;30.62;38.91;101109.88;4977351;28;20054;-61
2023/06/09 08:57:24;;;;;;;1.83;1.10;;;;;;;30.71;38.91;101115.31;4981222;28;20355;-61
2023/06/09 08:59:50;;;;;;;1.80;1.10;;;;;;;30.91;37.98;101100.72;4986591;28;20441;-62
2023/06/09 09:02:17;;;;;;;0.85;0.70;;;;;;;31.25;36.55;101108.28;4985160;28;20046;-61
2023/06/09 09:04:43;;;;;;;1.42;0.82;;;;;;;31.11;36.93;101111.88;4986992;28;20045;-61
2023/06/09 09:07:11;;;;;;;1.52;0.70;;;;;;;31.21;37.42;101104.16;4984335;28;20038;-62
2023/06/09 09:09:37;;;;;;;1.42;0.80;;;;;;;31.27;37.36;101113.34;4985195;28;20822;-62
2023/06/09 09:12:03;;;;;;;2.58;0.75;;;;;;;31.35;37.92;101106.88;4986443;28;20737;-61
2023/06/09 09:14:29;;;;;;;1.52;0.80;;;;;;;31.28;37.50;101106.53;4988358;28;20038;-62
2023/06/09 09:16:57;;;;;;;2.28;1.00;;;;;;;31.44;36.86;101095.63;4986799;28;20461;-62
2023/06/09 09:19:49;;;;;;;2.83;0.85;;;;;;;31.44;38.07;101094.84;4984399;28;20552;-62
2023/06/09 09:22:15;;;;;;;1.77;0.77;;;;;;;31.42;35.79;101089.00;4927906;29;20051;-62
2023/06/09 09:24:45;;;;;;;1.15;0.80;;;;;;;31.80;34.40;101097.81;4925308;29;20694;-62
2023/06/09 09:27:19;;;;;;;1.80;0.70;;;;;;;31.81;35.04;101104.94;4948808;28;20497;-62
2023/06/09 09:29:46;;;;;;;1.13;0.68;;;;;;;31.70;35.21;101090.09;4965117;28;20437;-62
2023/06/09 09:32:12;;;;;;;0.70;0.60;;;;;;;31.74;34.47;101097.00;4962974;28;20031;-62
2023/06/09 09:34:41;;;;;;;3.33;0.90;;;;;;;31.82;33.76;101106.44;4967908;28;20050;-63
2023/06/09 09:37:11;;;;;;;1.27;0.77;;;;;;;31.31;32.77;101088.84;4962858;28;20482;-61
2023/06/09 09:39:50;;;;;;;0.75;0.73;;;;;;;31.56;34.08;101097.28;4959946;28;20058;-62
2023/06/09 09:42:16;;;;;;;1.30;0.73;;;;;;;31.58;33.81;101103.16;4968710;28;20035;-62
2023/06/09 09:44:47;;;;;;;1.60;0.90;;;;;;;31.82;34.74;101109.22;4967326;28;20126;-61
2023/06/09 09:47:19;;;;;;;1.45;0.73;;;;;;;31.75;33.90;101106.88;4951163;28;20098;-61
2023/06/09 09:49:53;;;;;;;2.75;0.80;;;;;;;31.72;33.55;101096.72;4958527;28;20046;-61
2023/06/09 09:52:29;;;;;;;0.70;0.60;;;;;;;31.83;34.29;101096.84;4953766;28;20052;-62
2023/06/09 09:54:58;;;;;;;1.73;0.73;;;;;;;32.31;33.96;101096.31;4964671;28;20417;-62
2023/06/09 09:57:26;;;;;;;1.80;0.80;;;;;;;32.44;34.06;101089.09;4962405;28;20045;-61
2023/06/09 09:59:52;;;;;;;3.42;0.82;;;;;;;32.45;34.81;101096.22;5011293;28;20488;-62
2023/06/09 10:02:25;;;;;;;1.02;0.70;;;;;;;32.67;34.40;101087.25;5009550;28;20025;-62
2023/06/09 10:04:52;;;;;;;2.00;0.82;;;;;;;32.81;34.49;101089.13;5021808;28;20049;-61
2023/06/09 10:07:23;;;;;;;0.80;0.80;;;;;;;32.98;33.90;101090.00;5017041;28;21552;-62
2023/06/09 10:09:53;;;;;;;0.95;0.80;;;;;;;32.78;32.86;101078.94;5019465;28;20440;-62
2023/06/09 10:12:39;;;;;;;0.82;0.50;;;;;;;32.90;33.06;101079.75;5020641;28;20108;-62
2023/06/09 10:15:10;;;;;;;1.67;0.75;;;;;;;32.90;32.58;101091.69;4886132;29;20153;-62
2023/06/09 10:17:36;;;;;;;1.17;0.80;;;;;;;32.81;32.32;101098.25;4908053;29;20040;-62
2023/06/09 10:20:08;;;;;;;0.82;0.70;;;;;;;33.03;32.50;101086.47;4904227;29;20048;-61
2023/06/09 10:22:34;;;;;;;1.92;0.55;;;;;;;32.96;31.52;101077.78;4904947;29;20044;-62
2023/06/09 10:25:00;;;;;;;1.13;0.90;;;;;;;32.83;31.75;101078.19;4905292;29;20040;-62
2023/06/09 10:27:26;;;;;;;1.27;0.50;;;;;;;32.78;31.74;101079.72;4911246;29;20047;-61
2023/06/09 10:29:52;;;;;;;1.10;0.80;;;;;;;32.79;31.47;101086.06;4910421;29;20135;-62
2023/06/09 10:32:23;;;;;;;0.57;0.50;;;;;;;32.99;31.71;101080.34;4907327;29;20094;-61
2023/06/09 10:34:52;;;;;;;1.33;0.85;;;;;;;33.26;32.11;101076.94;4904379;29;20047;-61
2023/06/09 10:37:32;;;;;;;1.25;0.63;;;;;;;33.40;30.60;101081.56;4902070;29;20099;-61
2023/06/09 10:40:22;;;;;;;1.02;0.55;;;;;;;33.49;31.06;101077.78;4899741;29;20051;-61
2023/06/09 10:42:50;;;;;;;1.02;0.65;;;;;;;33.39;30.42;101070.91;4909778;29;20046;-62
2023/06/09 10:45:18;;;;;;;1.00;0.60;;;;;;;33.33;30.12;101073.69;4901733;29;20051;-60
2023/06/09 10:47:46;;;;;;;2.33;0.68;;;;;;;33.51;31.54;101075.25;4908620;29;20508;-61
2023/06/09 10:50:26;;;;;;;0.95;0.82;;;;;;;33.77;31.03;101069.50;4906370;29;20068;-62
2023/06/09 10:52:53;;;;;;;1.08;0.68;;;;;;;33.83;29.26;101070.28;5000973;28;20049;-61
2023/06/09 10:55:21;;;;;;;0.90;0.80;;;;;;;33.83;29.96;101071.03;5028321;28;20400;-62
2023/06/09 10:57:47;;;;;;;1.13;0.70;;;;;;;33.65;29.26;101063.13;5026398;28;20033;-62
2023/06/09 11:00:14;;;;;;;3.22;1.00;;;;;;;33.25;29.44;101055.09;5029024;28;20047;-62
2023/06/09 11:02:47;;;;;;;0.52;0.40;;;;;;;33.23;28.34;101054.81;5023640;28;21541;-61
2023/06/09 11:05:13;;;;;;;1.30;0.80;;;;;;;33.26;28.79;101059.41;5025945;28;20403;-63
2023/06/09 11:07:45;;;;;;;2.00;0.80;;;;;;;33.72;29.68;101055.00;5023417;28;20017;-62
2023/06/09 11:10:11;;;;;;;0.90;0.60;;;;;;;33.89;29.19;101068.25;5023320;28;20096;-62
2023/06/09 11:12:37;;;;;;;1.33;0.60;;;;;;;33.84;29.35;101057.84;5023364;28;20550;-62
2023/06/09 11:15:03;;;;;;;1.88;0.57;;;;;;;33.77;29.00;101059.06;5023251;28;20053;-62
2023/06/09 11:17:40;;;;;;;0.88;0.57;;;;;;;33.90;29.43;101053.75;5025156;28;20065;-62
2023/06/09 11:20:11;;;;;;;1.35;0.80;;;;;;;33.87;29.40;101065.19;5025841;28;20036;-63
2023/06/09 11:22:48;;;;;;;1.35;0.65;;;;;;;33.92;28.37;101059.59;5019353;28;20030;-63
2023/06/09 11:25:17;;;;;;;0.90;0.57;;;;;;;34.18;28.59;101057.38;5007753;28;20072;-61
2023/06/09 11:27:44;;;;;;;1.63;0.63;;;;;;;34.42;28.82;101056.84;5016480;28;20146;-63
2023/06/09 11:30:17;;;;;;;1.02;0.63;;;;;;;34.23;29.92;101053.03;5025176;28;20045;-62